Buoy 56564

sailwx.info

Track history (hours):
 
Tides and Currents Weather Stations Pressure Air Temp Water Temp Dewpoint Dewpoint Depression Visibility Wind Speed Wind Dir Waves Ship Positions

Drifting buoy 56564

Last reported at 2017-Mar-28 11:40 UTC. Time now 2017-Mar-28 14:06 UTC.
Position S 29°10' E 069°15'.

Barometer 1020.3 mb
Water temperature 25.7 ° C

Date/timePositionNaut miles runAvg speedWind from/ knotsBaromVisibWave heightAir tempDewpointWater temp
2017-Mar-28 11:40S 29°10' E 069°15'1 0.6 1020.3 25.7
2017-Mar-28 09:30S 29°11' E 069°15'4 0.9 1020.4 25.6
2017-Mar-28 05:30S 29°14' E 069°16'1 0.8 1021.9 25.4
2017-Mar-28 04:30S 29°15' E 069°17'2 0.9 1022.3 25.2
2017-Mar-28 02:30S 29°17' E 069°17'1 0.4 1021.5 25.2
2017-Mar-28 00:40S 29°17' E 069°17'2 0.8 1021.4 25.2
2017-Mar-27 22:30S 29°19' E 069°17'1 1.3 1021.3 25.2
2017-Mar-27 21:30S 29°20' E 069°18'0 0.0 1021.7 25.2
2017-Mar-27 20:30S 29°20' E 069°18'4 1.2 1022.2 25.2
2017-Mar-27 17:30S 29°24' E 069°19'1 0.6 1023.3 25.2
2017-Mar-27 16:30S 29°25' E 069°19'1 0.6 1023.2 25.2
2017-Mar-27 15:30S 29°25' E 069°19'1 1.0 1023.2 25.2
2017-Mar-27 14:40S 29°26' E 069°20'1 0.5 1022.5 25.2
2017-Mar-27 13:30S 29°26' E 069°20'1 0.5 1022.2 25.1
2017-Mar-27 12:30S 29°26' E 069°20'1 0.8 1022.2 25.1
2017-Mar-27 11:30S 29°27' E 069°21'1 0.6 1021.8 25.1
2017-Mar-27 09:30S 29°28' E 069°21'4 0.9 1022.1 25.0
2017-Mar-27 05:30S 29°31' E 069°23'0 0.0 1024.0 23.9
2017-Mar-27 04:40S 29°31' E 069°23'2 1.6 1023.7 23.9
2017-Mar-27 03:30S 29°33' E 069°24'0 0.0 1023.7 23.9
2017-Mar-27 02:30S 29°33' E 069°24'1 1.3 1023.7 23.9
2017-Mar-27 01:30S 29°34' E 069°25'2 0.8 1023.2 23.9
2017-Mar-26 23:30S 29°35' E 069°26'1 0.3 1022.8 23.9
2017-Mar-26 21:40S 29°35' E 069°25'1 0.4 1023.2 24.0
2017-Mar-26 18:40S 29°36' E 069°26'0 0.0 1024.1 24.0
2017-Mar-26 17:40S 29°36' E 069°26'1 0.4 1024.3 24.0
2017-Mar-26 16:30S 29°36' E 069°27'1 0.5 1024.4 24.0
2017-Mar-26 15:30S 29°36' E 069°28'1 0.7 1024.1 24.0
2017-Mar-26 14:40S 29°35' E 069°28'1 0.9 1023.8 24.0
2017-Mar-26 13:30S 29°35' E 069°29'1 0.7 1023.3 24.1
2017-Mar-26 12:40S 29°36' E 069°29'0 0.0 1023.0 24.2
2017-Mar-26 11:40S 29°36' E 069°29'5 0.8 1022.8 24.2
2017-Mar-26 05:30S 29°36' E 069°35'1 1.6 1025.1 24.1
2017-Mar-26 04:40S 29°37' E 069°35'1 1.0 1024.8 24.0
2017-Mar-26 03:30S 29°38' E 069°37'1 0.7 1024.7 24.0
2017-Mar-26 01:40S 29°38' E 069°38'1 0.6 1023.9 24.0
2017-Mar-25 23:40S 29°40' E 069°38'1 0.4 1023.7 24.0
2017-Mar-25 21:30S 29°40' E 069°38'1 0.4 1024.3 24.0
2017-Mar-25 18:30S 29°40' E 069°40'1 0.4 1025.6 24.1
2017-Mar-25 16:30S 29°39' E 069°40'1 1.0 1025.9 24.1
2017-Mar-25 15:30S 29°39' E 069°41'1 0.3 1025.7 24.2
2017-Mar-25 13:30S 29°39' E 069°42'1 1.4 1024.7 24.2
2017-Mar-25 12:40S 29°38' E 069°43'3 2.2 1024.1 24.2
2017-Mar-25 11:30S 29°38' E 069°46'0 0.0 1024.3 24.3
2017-Mar-25 10:30S 29°38' E 069°46'7 1.1 1024.4 24.3
2017-Mar-25 04:30S 29°41' E 069°53'1 0.6 1026.5 24.2
2017-Mar-25 03:30S 29°41' E 069°53'1 1.2 1026.3 24.2
2017-Mar-25 02:30S 29°42' E 069°55'1 0.8 1026.2 24.2
2017-Mar-25 01:30S 29°43' E 069°55'2 2.0 1025.8 24.2
2017-Mar-25 00:30S 29°44' E 069°57'0 0.0 1025.6 24.3
2017-Mar-24 23:30S 29°44' E 069°57'0 0.0 1025.6 24.3
2017-Mar-24 21:40S 29°44' E 069°57'1 0.7 1025.9 24.2
2017-Mar-24 20:30S 29°44' E 069°58'2 0.7 1026.3 24.3
2017-Mar-24 17:30S 29°44' E 070°00'0 0.0 1027.2 24.3
2017-Mar-24 16:30S 29°44' E 070°00'2 1.9 1027.2 24.3
2017-Mar-24 15:40S 29°44' E 070°02'1 0.5 1027.0 24.3
2017-Mar-24 13:40S 29°44' E 070°03'2 1.7 1026.0 24.3
2017-Mar-24 12:40S 29°43' E 070°05'3 3.3 1025.7 24.4
2017-Mar-24 11:40S 29°44' E 070°08'0 0.0 1025.4 24.4
2017-Mar-24 10:30S 29°44' E 070°08'6 1.0 1025.4 24.4
2017-Mar-24 04:40S 29°47' E 070°14'0 0.0 1026.2 24.3
2017-Mar-24 03:30S 29°47' E 070°14'3 3.2 1025.9 24.3
2017-Mar-24 02:30S 29°49' E 070°17'1 0.5 1025.7 24.2
2017-Mar-24 01:30S 29°49' E 070°16'6 0.8 1025.3 24.2
2017-Mar-23 17:30S 29°51' E 070°23'2 2.2 1025.9 24.4
2017-Mar-23 16:30S 29°52' E 070°26'0 0.0 1025.9 24.4
2017-Mar-23 15:30S 29°52' E 070°26'1 0.5 1025.6 24.4
2017-Mar-23 14:30S 29°52' E 070°26'1 1.0 1025.2 24.4
2017-Mar-23 13:30S 29°52' E 070°28'10 1.2 1024.6 24.5
2017-Mar-23 05:30S 29°56' E 070°37'1 1.0 1025.0 24.3
2017-Mar-23 04:40S 29°57' E 070°38'2 2.1 1024.8 24.3
2017-Mar-23 03:40S 29°59' E 070°39'1 0.6 1024.5 24.3
2017-Mar-23 01:40S 29°59' E 070°40'2 0.3 1023.7 24.4
2017-Mar-22 20:40S 29°59' E 070°42'1 0.4 1023.4 24.6
2017-Mar-22 17:30S 29°58' E 070°43'1 1.2 1023.6 24.6
2017-Mar-22 16:40S 29°58' E 070°44'2 1.2 1023.2 24.6
2017-Mar-22 14:40S 29°57' E 070°47'1 0.6 1022.2 24.8
2017-Mar-22 13:40S 29°58' E 070°47'1 1.0 1021.9 24.9
2017-Mar-22 12:40S 29°58' E 070°48'1 0.5 1021.7 25.1
2017-Mar-22 10:30S 29°58' E 070°49'4 4.6 1021.2 25.3
2017-Mar-22 09:40S 29°59' E 070°53'0 0.0 1021.3 25.4
2017-Mar-22 05:40S 29°59' E 070°53'2 1.4 1022.9 24.5
2017-Mar-22 04:30S 29°59' E 070°55'1 0.6 1022.8 24.4
2017-Mar-22 03:40S 29°59' E 070°55'1 0.7 1022.4 24.4
2017-Mar-22 02:30S 30°00' E 070°55'1 0.6 1022.0 24.4
2017-Mar-22 01:30S 30°01' E 070°55'0 0.0 1021.5 24.4
2017-Mar-22 00:30S 30°01' E 070°55'0 0.0 1021.1 24.4
2017-Mar-21 22:30S 30°01' E 070°55'2 0.4 1020.7 24.4
2017-Mar-21 18:30S 29°59' E 070°56'1 0.6 1022.1 24.5
2017-Mar-21 16:40S 29°59' E 070°58'1 0.6 1022.7 24.5
2017-Mar-21 14:30S 29°59' E 070°59'0 0.0 1022.1 24.6
2017-Mar-21 13:40S 29°59' E 070°59'1 0.9 1021.5 24.6
2017-Mar-21 12:30S 29°59' E 071°00'4 1.4 1021.3 24.8
2017-Mar-21 09:30S 29°58' E 071°05'0 0.0 1021.1 24.7
2017-Mar-21 04:40S 29°58' E 071°05'1 0.8 1023.4 24.4
2017-Mar-21 03:40S 29°59' E 071°05'0 0.0 1023.5 24.4
2017-Mar-21 02:30S 29°59' E 071°05'1 0.7 1023.3 24.4
2017-Mar-21 00:30S 29°58' E 071°06'1 0.3 1022.9 24.4
2017-Mar-20 22:40S 29°58' E 071°06'3 0.6 1023.0 24.4
2017-Mar-20 16:40S 29°55' E 071°08'3 1.3 1024.7 24.5
2017-Mar-20 14:30S 29°54' E 071°11'0 0.0 1024.4 24.5
2017-Mar-20 13:40S 29°54' E 071°11'1 0.9 1024.2 24.5
2017-Mar-20 12:30S 29°54' E 071°12'1 0.6 1023.9 24.6
2017-Mar-20 11:30S 29°53' E 071°12'4 2.3 1023.7 24.7
2017-Mar-20 09:40S 29°53' E 071°17'0 0.0 1024.0 24.7
2017-Mar-20 04:40S 29°53' E 071°17'1 0.8 1026.3 24.5
2017-Mar-20 03:40S 29°53' E 071°17'0 0.0 1026.2 24.5
2017-Mar-20 02:30S 29°53' E 071°17'1 1.0 1026.0 24.5
2017-Mar-20 01:30S 29°53' E 071°19'1 0.3 1026.1 24.5
2017-Mar-19 22:30S 29°53' E 071°18'4 2.0 1026.3 24.5
2017-Mar-19 20:30S 29°50' E 071°21'1 0.2 1027.0 24.5
2017-Mar-19 17:40S 29°50' E 071°22'2 1.4 1027.7 24.5
2017-Mar-19 16:30S 29°49' E 071°23'2 0.6 1027.9 24.5
2017-Mar-19 13:40S 29°49' E 071°25'2 0.8 1027.4 24.5
2017-Mar-19 11:40S 29°49' E 071°27'1 0.5 1026.8 24.5
2017-Mar-19 09:30S 29°49' E 071°28'3 0.5 1027.1 24.5
2017-Mar-19 04:40S 29°49' E 071°31'1 0.7 1029.0 24.4
2017-Mar-19 03:30S 29°49' E 071°32'1 0.5 1028.9 24.4
2017-Mar-19 02:30S 29°49' E 071°32'1 0.8 1028.8 24.4
2017-Mar-19 01:30S 29°49' E 071°33'0 0.0 1028.3 24.4
2017-Mar-19 00:30S 29°49' E 071°33'1 0.4 1028.0 24.5
2017-Mar-18 22:30S 29°49' E 071°34'1 0.5 1027.9 24.5
2017-Mar-18 21:30S 29°49' E 071°34'4 0.9 1028.1 24.6
2017-Mar-18 17:30S 29°47' E 071°38'2 0.8 1029.0 24.6
2017-Mar-18 15:30S 29°46' E 071°40'1 1.2 1029.3 24.6
2017-Mar-18 14:40S 29°46' E 071°41'1 0.9 1028.8 24.6
2017-Mar-18 13:30S 29°46' E 071°42'   1028.0 24.6
Track history (hours):
 
Tides and Currents Weather Stations Pressure Air Temp Water Temp Dewpoint Dewpoint Depression Visibility Wind Speed Wind Dir Waves Ship Positions

Drifting buoy 56564

Last reported at 2017-Mar-28 11:40 UTC. Time now 2017-Mar-28 14:06 UTC.
Position S 29°10' E 069°15'.

Barometer 1020.3 mb
Water temperature 25.7 ° C

Date/timePositionNaut miles runAvg speedWind from/ knotsBaromVisibWave heightAir tempDewpointWater temp
2017-Mar-28 11:40S 29°10' E 069°15'1 0.6 1020.3 25.7
2017-Mar-28 09:30S 29°11' E 069°15'4 0.9 1020.4 25.6
2017-Mar-28 05:30S 29°14' E 069°16'1 0.8 1021.9 25.4
2017-Mar-28 04:30S 29°15' E 069°17'2 0.9 1022.3 25.2
2017-Mar-28 02:30S 29°17' E 069°17'1 0.4 1021.5 25.2
2017-Mar-28 00:40S 29°17' E 069°17'2 0.8 1021.4 25.2
2017-Mar-27 22:30S 29°19' E 069°17'1 1.3 1021.3 25.2
2017-Mar-27 21:30S 29°20' E 069°18'0 0.0 1021.7 25.2
2017-Mar-27 20:30S 29°20' E 069°18'4 1.2 1022.2 25.2
2017-Mar-27 17:30S 29°24' E 069°19'1 0.6 1023.3 25.2
2017-Mar-27 16:30S 29°25' E 069°19'1 0.6 1023.2 25.2
2017-Mar-27 15:30S 29°25' E 069°19'1 1.0 1023.2 25.2
2017-Mar-27 14:40S 29°26' E 069°20'1 0.5 1022.5 25.2
2017-Mar-27 13:30S 29°26' E 069°20'1 0.5 1022.2 25.1
2017-Mar-27 12:30S 29°26' E 069°20'1 0.8 1022.2 25.1
2017-Mar-27 11:30S 29°27' E 069°21'1 0.6 1021.8 25.1
2017-Mar-27 09:30S 29°28' E 069°21'4 0.9 1022.1 25.0
2017-Mar-27 05:30S 29°31' E 069°23'0 0.0 1024.0 23.9
2017-Mar-27 04:40S 29°31' E 069°23'2 1.6 1023.7 23.9
2017-Mar-27 03:30S 29°33' E 069°24'0 0.0 1023.7 23.9
2017-Mar-27 02:30S 29°33' E 069°24'1 1.3 1023.7 23.9
2017-Mar-27 01:30S 29°34' E 069°25'2 0.8 1023.2 23.9
2017-Mar-26 23:30S 29°35' E 069°26'1 0.3 1022.8 23.9
2017-Mar-26 21:40S 29°35' E 069°25'1 0.4 1023.2 24.0
2017-Mar-26 18:40S 29°36' E 069°26'0 0.0 1024.1 24.0
2017-Mar-26 17:40S 29°36' E 069°26'1 0.4 1024.3 24.0
2017-Mar-26 16:30S 29°36' E 069°27'1 0.5 1024.4 24.0
2017-Mar-26 15:30S 29°36' E 069°28'1 0.7 1024.1 24.0
2017-Mar-26 14:40S 29°35' E 069°28'1 0.9 1023.8 24.0
2017-Mar-26 13:30S 29°35' E 069°29'1 0.7 1023.3 24.1
2017-Mar-26 12:40S 29°36' E 069°29'0 0.0 1023.0 24.2
2017-Mar-26 11:40S 29°36' E 069°29'5 0.8 1022.8 24.2
2017-Mar-26 05:30S 29°36' E 069°35'1 1.6 1025.1 24.1
2017-Mar-26 04:40S 29°37' E 069°35'1 1.0 1024.8 24.0
2017-Mar-26 03:30S 29°38' E 069°37'1 0.7 1024.7 24.0
2017-Mar-26 01:40S 29°38' E 069°38'1 0.6 1023.9 24.0
2017-Mar-25 23:40S 29°40' E 069°38'1 0.4 1023.7 24.0
2017-Mar-25 21:30S 29°40' E 069°38'1 0.4 1024.3 24.0
2017-Mar-25 18:30S 29°40' E 069°40'1 0.4 1025.6 24.1
2017-Mar-25 16:30S 29°39' E 069°40'1 1.0 1025.9 24.1
2017-Mar-25 15:30S 29°39' E 069°41'1 0.3 1025.7 24.2
2017-Mar-25 13:30S 29°39' E 069°42'1 1.4 1024.7 24.2
2017-Mar-25 12:40S 29°38' E 069°43'3 2.2 1024.1 24.2
2017-Mar-25 11:30S 29°38' E 069°46'0 0.0 1024.3 24.3
2017-Mar-25 10:30S 29°38' E 069°46'7 1.1 1024.4 24.3
2017-Mar-25 04:30S 29°41' E 069°53'1 0.6 1026.5 24.2
2017-Mar-25 03:30S 29°41' E 069°53'1 1.2 1026.3 24.2
2017-Mar-25 02:30S 29°42' E 069°55'1 0.8 1026.2 24.2
2017-Mar-25 01:30S 29°43' E 069°55'2 2.0 1025.8 24.2
2017-Mar-25 00:30S 29°44' E 069°57'0 0.0 1025.6 24.3
2017-Mar-24 23:30S 29°44' E 069°57'0 0.0 1025.6 24.3
2017-Mar-24 21:40S 29°44' E 069°57'1 0.7 1025.9 24.2
2017-Mar-24 20:30S 29°44' E 069°58'2 0.7 1026.3 24.3
2017-Mar-24 17:30S 29°44' E 070°00'0 0.0 1027.2 24.3
2017-Mar-24 16:30S 29°44' E 070°00'2 1.9 1027.2 24.3
2017-Mar-24 15:40S 29°44' E 070°02'1 0.5 1027.0 24.3
2017-Mar-24 13:40S 29°44' E 070°03'2 1.7 1026.0 24.3
2017-Mar-24 12:40S 29°43' E 070°05'3 3.3 1025.7 24.4
2017-Mar-24 11:40S 29°44' E 070°08'0 0.0 1025.4 24.4
2017-Mar-24 10:30S 29°44' E 070°08'6 1.0 1025.4 24.4
2017-Mar-24 04:40S 29°47' E 070°14'0 0.0 1026.2 24.3
2017-Mar-24 03:30S 29°47' E 070°14'3 3.2 1025.9 24.3
2017-Mar-24 02:30S 29°49' E 070°17'1 0.5 1025.7 24.2
2017-Mar-24 01:30S 29°49' E 070°16'6 0.8 1025.3 24.2
2017-Mar-23 17:30S 29°51' E 070°23'2 2.2 1025.9 24.4
2017-Mar-23 16:30S 29°52' E 070°26'0 0.0 1025.9 24.4
2017-Mar-23 15:30S 29°52' E 070°26'1 0.5 1025.6 24.4
2017-Mar-23 14:30S 29°52' E 070°26'1 1.0 1025.2 24.4
2017-Mar-23 13:30S 29°52' E 070°28'10 1.2 1024.6 24.5
2017-Mar-23 05:30S 29°56' E 070°37'1 1.0 1025.0 24.3
2017-Mar-23 04:40S 29°57' E 070°38'2 2.1 1024.8 24.3
2017-Mar-23 03:40S 29°59' E 070°39'1 0.6 1024.5 24.3
2017-Mar-23 01:40S 29°59' E 070°40'2 0.3 1023.7 24.4
2017-Mar-22 20:40S 29°59' E 070°42'1 0.4 1023.4 24.6
2017-Mar-22 17:30S 29°58' E 070°43'1 1.2 1023.6 24.6
2017-Mar-22 16:40S 29°58' E 070°44'2 1.2 1023.2 24.6
2017-Mar-22 14:40S 29°57' E 070°47'1 0.6 1022.2 24.8
2017-Mar-22 13:40S 29°58' E 070°47'1 1.0 1021.9 24.9
2017-Mar-22 12:40S 29°58' E 070°48'1 0.5 1021.7 25.1
2017-Mar-22 10:30S 29°58' E 070°49'4 4.6 1021.2 25.3
2017-Mar-22 09:40S 29°59' E 070°53'0 0.0 1021.3 25.4
2017-Mar-22 05:40S 29°59' E 070°53'2 1.4 1022.9 24.5
2017-Mar-22 04:30S 29°59' E 070°55'1 0.6 1022.8 24.4
2017-Mar-22 03:40S 29°59' E 070°55'1 0.7 1022.4 24.4
2017-Mar-22 02:30S 30°00' E 070°55'1 0.6 1022.0 24.4
2017-Mar-22 01:30S 30°01' E 070°55'0 0.0 1021.5 24.4
2017-Mar-22 00:30S 30°01' E 070°55'0 0.0 1021.1 24.4
2017-Mar-21 22:30S 30°01' E 070°55'2 0.4 1020.7 24.4
2017-Mar-21 18:30S 29°59' E 070°56'1 0.6 1022.1 24.5
2017-Mar-21 16:40S 29°59' E 070°58'1 0.6 1022.7 24.5
2017-Mar-21 14:30S 29°59' E 070°59'0 0.0 1022.1 24.6
2017-Mar-21 13:40S 29°59' E 070°59'1 0.9 1021.5 24.6
2017-Mar-21 12:30S 29°59' E 071°00'4 1.4 1021.3 24.8
2017-Mar-21 09:30S 29°58' E 071°05'0 0.0 1021.1 24.7
2017-Mar-21 04:40S 29°58' E 071°05'1 0.8 1023.4 24.4
2017-Mar-21 03:40S 29°59' E 071°05'0 0.0 1023.5 24.4
2017-Mar-21 02:30S 29°59' E 071°05'1 0.7 1023.3 24.4
2017-Mar-21 00:30S 29°58' E 071°06'1 0.3 1022.9 24.4
2017-Mar-20 22:40S 29°58' E 071°06'3 0.6 1023.0 24.4
2017-Mar-20 16:40S 29°55' E 071°08'3 1.3 1024.7 24.5
2017-Mar-20 14:30S 29°54' E 071°11'0 0.0 1024.4 24.5
2017-Mar-20 13:40S 29°54' E 071°11'1 0.9 1024.2 24.5
2017-Mar-20 12:30S 29°54' E 071°12'1 0.6 1023.9 24.6
2017-Mar-20 11:30S 29°53' E 071°12'4 2.3 1023.7 24.7
2017-Mar-20 09:40S 29°53' E 071°17'0 0.0 1024.0 24.7
2017-Mar-20 04:40S 29°53' E 071°17'1 0.8 1026.3 24.5
2017-Mar-20 03:40S 29°53' E 071°17'0 0.0 1026.2 24.5
2017-Mar-20 02:30S 29°53' E 071°17'1 1.0 1026.0 24.5
2017-Mar-20 01:30S 29°53' E 071°19'1 0.3 1026.1 24.5
2017-Mar-19 22:30S 29°53' E 071°18'4 2.0 1026.3 24.5
2017-Mar-19 20:30S 29°50' E 071°21'1 0.2 1027.0 24.5
2017-Mar-19 17:40S 29°50' E 071°22'2 1.4 1027.7 24.5
2017-Mar-19 16:30S 29°49' E 071°23'2 0.6 1027.9 24.5
2017-Mar-19 13:40S 29°49' E 071°25'2 0.8 1027.4 24.5
2017-Mar-19 11:40S 29°49' E 071°27'1 0.5 1026.8 24.5
2017-Mar-19 09:30S 29°49' E 071°28'3 0.5 1027.1 24.5
2017-Mar-19 04:40S 29°49' E 071°31'1 0.7 1029.0 24.4
2017-Mar-19 03:30S 29°49' E 071°32'1 0.5 1028.9 24.4
2017-Mar-19 02:30S 29°49' E 071°32'1 0.8 1028.8 24.4
2017-Mar-19 01:30S 29°49' E 071°33'0 0.0 1028.3 24.4
2017-Mar-19 00:30S 29°49' E 071°33'1 0.4 1028.0 24.5
2017-Mar-18 22:30S 29°49' E 071°34'1 0.5 1027.9 24.5
2017-Mar-18 21:30S 29°49' E 071°34'4 0.9 1028.1 24.6
2017-Mar-18 17:30S 29°47' E 071°38'2 0.8 1029.0 24.6
2017-Mar-18 15:30S 29°46' E 071°40'1 1.2 1029.3 24.6
2017-Mar-18 14:40S 29°46' E 071°41'1 0.9 1028.8 24.6
2017-Mar-18 13:30S 29°46' E 071°42'   1028.0 24.6

Dump ship's entire track history